createdAt,value
2018-10-17T02:53:38.696Z,21.35
2018-10-17T02:56:07.148Z,20.50
2018-10-17T02:58:35.589Z,18.90
2018-10-17T03:01:04.041Z,27.95
2018-10-17T03:03:33.337Z,26.23
2018-10-17T03:06:01.891Z,20.80
2018-10-17T03:08:30.285Z,25.02
2018-10-17T03:10:58.807Z,23.90
2018-10-17T03:13:27.547Z,25.77
2018-10-17T03:15:56.015Z,19.00
2018-10-17T03:18:24.483Z,24.00
2018-10-17T03:20:52.877Z,24.25
2018-10-17T03:23:21.369Z,25.85
2018-10-17T03:25:49.781Z,24.95
2018-10-17T03:28:18.279Z,24.60
2018-10-17T03:30:46.813Z,22.10
2018-10-17T03:33:15.291Z,20.50
2018-10-17T03:35:43.791Z,29.48
2018-10-17T03:38:12.256Z,25.55
2018-10-17T03:40:40.712Z,21.55
2018-10-17T03:43:09.266Z,25.05
2018-10-17T03:45:37.703Z,36.53
2018-10-17T03:48:06.110Z,22.90
2018-10-17T03:50:34.646Z,22.17
2018-10-17T03:53:03.346Z,24.67
2018-10-17T03:55:31.773Z,23.27
2018-10-17T03:58:00.200Z,22.90
2018-10-17T04:00:28.678Z,23.85
2018-10-17T04:02:57.132Z,22.65
2018-10-17T04:05:25.582Z,22.30
2018-10-17T04:07:54.055Z,25.35
2018-10-17T04:10:22.588Z,24.37
2018-10-17T04:12:51.138Z,20.10
2018-10-17T04:15:19.557Z,22.37
2018-10-17T04:17:47.900Z,21.73
2018-10-17T04:20:16.407Z,22.58
2018-10-17T04:22:51.612Z,21.45
2018-10-17T04:25:19.973Z,24.32
2018-10-17T04:27:48.449Z,24.85
2018-10-17T04:30:16.859Z,20.00
2018-10-17T04:32:45.371Z,24.67
2018-10-17T04:35:13.939Z,22.85
2018-10-17T04:37:42.266Z,23.77
2018-10-17T04:40:10.714Z,20.70
2018-10-17T04:42:39.143Z,25.37
2018-10-17T04:45:07.970Z,27.70
2018-10-17T04:47:36.687Z,23.40
2018-10-17T04:50:06.230Z,26.42
2018-10-17T04:52:34.648Z,22.73
2018-10-17T04:55:03.165Z,24.80
2018-10-17T04:57:31.533Z,23.05
2018-10-17T04:59:59.899Z,24.10
2018-10-17T05:02:28.162Z,22.58
2018-10-17T05:10:24.819Z,25.52
2018-10-17T05:12:53.326Z,24.05
2018-10-17T05:15:21.786Z,22.82
2018-10-17T05:17:49.885Z,26.45
2018-10-17T05:20:18.049Z,24.18
2018-10-17T05:22:46.249Z,28.45
2018-10-17T05:25:14.677Z,25.48
2018-10-17T05:27:42.681Z,29.98
2018-10-17T05:30:10.857Z,26.73
2018-10-17T05:32:39.045Z,26.12
2018-10-17T05:35:07.515Z,24.23
2018-10-17T05:37:35.748Z,27.85
2018-10-17T05:40:03.835Z,29.45
2018-10-17T05:42:32.021Z,23.35
2018-10-17T05:45:00.212Z,28.45
2018-10-17T05:47:28.416Z,34.03
2018-10-17T05:49:56.612Z,26.23
2018-10-17T05:52:24.798Z,28.42
2018-10-17T05:54:53.027Z,23.83
2018-10-17T05:57:21.273Z,29.20
2018-10-17T05:59:49.462Z,30.43
2018-10-17T06:02:20.372Z,29.18
2018-10-17T06:04:48.543Z,36.03
2018-10-17T06:07:17.211Z,27.37
2018-10-17T06:09:45.863Z,29.30
2018-10-17T06:12:14.115Z,27.73
2018-10-17T06:14:42.386Z,32.17
2018-10-17T06:17:10.608Z,28.80
2018-10-17T06:19:38.826Z,35.30
2018-10-17T06:22:07.063Z,26.65
2018-10-17T06:24:35.403Z,30.60
2018-10-17T06:27:03.662Z,37.75
2018-10-17T06:29:31.994Z,33.20
2018-10-17T06:32:00.193Z,32.40
2018-10-17T06:34:28.463Z,47.40
2018-10-17T06:36:56.739Z,32.73
2018-10-17T06:39:24.860Z,24.85
2018-10-17T06:41:53.067Z,27.70
2018-10-17T06:44:21.283Z,23.50
2018-10-17T06:46:49.522Z,29.03
2018-10-17T06:49:17.909Z,27.70
2018-10-17T06:51:46.060Z,23.42
2018-10-17T06:54:14.313Z,32.65
2018-10-17T06:56:42.752Z,30.17
2018-10-17T06:59:11.091Z,28.17
2018-10-17T07:01:40.683Z,31.30
2018-10-17T07:04:09.049Z,33.83
2018-10-17T07:06:37.227Z,31.02
2018-10-17T07:09:07.963Z,25.17
2018-10-17T07:11:36.438Z,25.27
2018-10-17T07:14:04.987Z,24.50
2018-10-17T07:16:33.302Z,24.75
2018-10-17T07:19:01.563Z,31.25
2018-10-17T07:21:30.410Z,28.70
2018-10-17T07:23:58.676Z,29.20
2018-10-17T07:26:27.001Z,34.00
2018-10-17T07:28:56.283Z,25.63
2018-10-17T07:31:25.405Z,27.13
2018-10-17T07:33:53.937Z,25.20
2018-10-17T07:36:23.067Z,28.80
2018-10-17T07:38:51.606Z,22.70
2018-10-17T07:41:19.985Z,23.53
2018-10-17T07:43:48.531Z,25.10
2018-10-17T07:46:17.097Z,22.10
2018-10-17T07:48:45.567Z,21.10
2018-10-17T07:51:14.179Z,25.03
2018-10-17T07:53:42.624Z,31.80
2018-10-17T07:56:11.608Z,24.27
2018-10-17T07:58:39.964Z,26.10
2018-10-17T08:01:08.497Z,32.33
2018-10-17T08:03:36.889Z,29.40
2018-10-17T08:06:06.025Z,26.53
2018-10-17T08:08:34.391Z,25.93
2018-10-17T08:11:02.707Z,28.70
2018-10-17T08:13:31.205Z,27.67
2018-10-17T08:15:59.522Z,28.37
2018-10-17T08:18:27.967Z,23.00
2018-10-17T08:20:56.345Z,23.50
2018-10-17T08:23:24.811Z,25.70
2018-10-17T08:25:53.215Z,24.30
2018-10-17T08:28:21.670Z,27.27
2018-10-17T08:30:49.966Z,27.53
2018-10-17T08:33:18.640Z,24.00
2018-10-17T08:35:47.116Z,25.97
2018-10-17T08:38:15.415Z,25.40
2018-10-17T08:40:43.774Z,33.03
2018-10-17T08:43:12.186Z,32.70
2018-10-17T08:45:40.751Z,24.33
2018-10-17T08:48:09.417Z,19.00
2018-10-17T08:50:37.952Z,24.27
2018-10-17T08:53:06.421Z,26.20
2018-10-17T08:55:34.863Z,23.53
2018-10-17T08:58:03.536Z,25.80
2018-10-17T09:00:32.334Z,23.87
2018-10-17T09:03:00.816Z,17.37
2018-10-17T09:05:29.479Z,22.50
2018-10-17T09:07:58.107Z,19.83
2018-10-17T09:10:26.597Z,16.17
2018-10-17T09:12:55.142Z,19.40
2018-10-17T09:15:23.683Z,21.13
2018-10-17T09:17:52.145Z,19.40
2018-10-17T09:20:20.948Z,16.80
2018-10-17T09:22:49.420Z,14.37
2018-10-17T09:25:18.033Z,15.10
2018-10-17T09:27:46.653Z,15.80
2018-10-17T09:30:15.212Z,19.40
2018-10-17T09:32:43.610Z,16.03
2018-10-17T09:35:12.557Z,16.10
2018-10-17T09:37:40.868Z,15.80
2018-10-17T09:40:10.248Z,20.47
2018-10-17T09:42:38.808Z,16.80
2018-10-17T09:45:08.030Z,18.33
2018-10-17T09:47:36.255Z,17.13
2018-10-17T09:50:08.639Z,20.53
2018-10-17T09:52:37.072Z,19.57
2018-10-17T09:55:05.979Z,22.60
2018-10-17T09:57:34.431Z,17.30
2018-10-17T10:00:03.209Z,16.03
2018-10-17T10:02:31.733Z,16.17
2018-10-17T10:05:00.139Z,20.27
2018-10-17T10:07:28.657Z,14.13
2018-10-17T10:09:57.098Z,18.40
2018-10-17T10:12:25.602Z,15.70
2018-10-17T10:14:53.943Z,17.83
2018-10-17T10:17:33.600Z,17.80
2018-10-17T10:20:01.826Z,17.17
2018-10-17T10:22:30.202Z,19.63
2018-10-17T10:24:58.696Z,21.00
2018-10-17T10:27:27.204Z,19.70
2018-10-17T10:29:55.576Z,21.70
2018-10-17T10:32:23.743Z,21.00
2018-10-17T10:34:52.131Z,21.40
2018-10-17T10:37:20.430Z,18.60
2018-10-17T10:39:49.305Z,20.87
2018-10-17T10:42:17.841Z,21.60
2018-10-17T10:44:46.124Z,20.87
2018-10-17T10:47:14.395Z,20.77
2018-10-17T10:49:42.832Z,19.07
2018-10-17T10:52:11.219Z,20.80
2018-10-17T10:54:39.567Z,20.73
2018-10-17T10:57:07.879Z,22.80
2018-10-17T10:59:36.320Z,22.37
2018-10-17T11:02:04.512Z,20.13
2018-10-17T11:04:32.672Z,20.17
2018-10-17T11:07:00.963Z,19.70
2018-10-17T11:09:29.306Z,21.07
2018-10-17T11:11:57.526Z,16.87
2018-10-17T11:14:25.899Z,15.43
2018-10-17T11:16:54.084Z,18.23
2018-10-17T11:19:22.343Z,20.47
2018-10-17T11:21:50.702Z,20.47
2018-10-17T11:24:18.910Z,26.47
2018-10-17T11:26:47.214Z,22.70
2018-10-17T11:29:15.587Z,20.40
2018-10-17T11:31:43.872Z,18.40
2018-10-17T11:34:12.105Z,18.30
2018-10-17T11:36:40.385Z,19.80
2018-10-17T11:39:09.283Z,17.33
2018-10-17T11:41:38.092Z,21.23
2018-10-17T11:44:06.608Z,17.03
2018-10-17T11:46:34.920Z,16.80
2018-10-17T11:49:04.082Z,23.27
2018-10-17T11:51:32.570Z,15.00
2018-10-17T11:54:01.040Z,18.40
2018-10-17T11:56:29.254Z,17.43
2018-10-17T11:58:57.593Z,13.43
2018-10-17T12:01:25.767Z,13.37
2018-10-17T12:03:54.272Z,13.63
2018-10-17T12:06:22.360Z,14.97
2018-10-17T12:08:50.634Z,16.50
2018-10-17T12:11:18.936Z,17.27
2018-10-17T12:13:47.174Z,10.83
2018-10-17T12:16:15.375Z,20.13
2018-10-17T12:18:44.314Z,14.23
2018-10-17T12:21:12.695Z,13.03
2018-10-17T12:23:40.759Z,15.47
2018-10-17T12:26:09.008Z,11.30
2018-10-17T12:28:37.420Z,8.30
2018-10-17T12:31:06.020Z,10.80
2018-10-17T12:33:34.281Z,15.33
2018-10-17T12:36:02.593Z,9.40
2018-10-17T12:38:31.019Z,8.43
2018-10-17T12:40:59.627Z,11.17
2018-10-17T12:43:27.786Z,8.53
2018-10-17T12:45:56.220Z,9.77
2018-10-17T12:48:24.551Z,7.70
2018-10-17T12:50:52.902Z,8.07
2018-10-17T12:53:21.462Z,7.47
2018-10-17T12:55:49.718Z,10.83
2018-10-17T12:58:18.341Z,9.10
2018-10-17T13:00:46.827Z,9.67
2018-10-17T13:03:15.295Z,8.60
2018-10-17T13:05:43.777Z,11.67
2018-10-17T13:08:13.004Z,10.30
2018-10-17T13:10:42.103Z,11.93
2018-10-17T13:13:10.775Z,15.93
2018-10-17T13:15:39.280Z,10.43
2018-10-17T13:18:07.779Z,12.40
2018-10-17T13:20:39.430Z,15.00
2018-10-17T13:23:07.919Z,10.43
2018-10-17T13:25:36.906Z,11.23
2018-10-17T13:28:05.951Z,16.67
2018-10-17T13:30:34.676Z,11.03
2018-10-17T13:33:03.290Z,10.33
2018-10-17T13:35:31.931Z,9.03
2018-10-17T13:38:00.485Z,9.33
2018-10-17T13:40:29.112Z,9.73
2018-10-17T13:42:57.744Z,11.43
2018-10-17T13:45:26.264Z,11.90
2018-10-17T13:47:54.780Z,10.10
2018-10-17T13:50:23.419Z,13.63
2018-10-17T13:52:52.116Z,13.10
2018-10-17T13:55:20.832Z,9.90
2018-10-17T13:57:49.597Z,13.67
2018-10-17T14:00:18.079Z,15.87
2018-10-17T14:02:47.859Z,17.63
2018-10-17T14:05:16.572Z,10.13
2018-10-17T14:07:48.823Z,11.50
2018-10-17T14:10:18.389Z,10.33
2018-10-17T14:12:47.941Z,16.67
2018-10-17T14:15:16.708Z,8.40
2018-10-17T14:17:48.502Z,9.50
2018-10-17T14:20:19.302Z,13.60
2018-10-17T14:36:46.901Z,13.53
2018-10-17T14:39:15.490Z,9.53
2018-10-17T14:41:43.892Z,13.77
2018-10-17T14:44:12.758Z,14.40
2018-10-17T14:46:41.298Z,11.33
2018-10-17T14:49:09.987Z,16.03
2018-10-17T14:51:38.581Z,12.57
2018-10-17T14:54:07.286Z,13.80
2018-10-17T14:56:35.875Z,20.27
2018-10-17T14:59:04.844Z,15.10
2018-10-17T15:01:33.155Z,9.27
2018-10-17T15:04:01.825Z,23.47
2018-10-17T15:06:30.538Z,11.60
2018-10-17T15:08:59.408Z,8.90
2018-10-17T15:11:28.148Z,20.47
2018-10-17T15:13:56.773Z,15.87
2018-10-17T15:16:25.808Z,17.37
2018-10-17T15:18:54.331Z,13.37
2018-10-17T15:21:23.212Z,10.33
2018-10-17T15:23:51.706Z,21.13
2018-10-17T15:26:19.991Z,11.83
2018-10-17T15:28:48.412Z,23.27
2018-10-17T15:31:17.067Z,13.60
2018-10-17T15:33:45.534Z,15.90
2018-10-17T15:36:14.076Z,20.50
2018-10-17T15:38:42.543Z,13.83
2018-10-17T15:41:11.461Z,18.47
2018-10-17T15:43:39.897Z,11.97
2018-10-17T15:46:08.514Z,14.20
2018-10-17T15:48:36.931Z,13.63
2018-10-17T15:51:05.404Z,14.00
2018-10-17T15:53:33.731Z,17.90
2018-10-17T15:56:02.062Z,11.87
2018-10-17T15:58:30.445Z,17.60
2018-10-17T16:00:58.725Z,18.47
2018-10-17T16:03:27.146Z,17.70
2018-10-17T16:05:55.584Z,14.13
2018-10-17T16:08:23.935Z,20.60
2018-10-17T16:10:52.388Z,17.00
2018-10-17T16:13:20.848Z,15.43
2018-10-17T16:15:49.226Z,19.37
2018-10-17T16:18:17.669Z,10.60
2018-10-17T16:20:45.971Z,12.63
2018-10-17T16:23:14.531Z,15.43
2018-10-17T16:25:43.426Z,13.00
2018-10-17T16:28:11.819Z,12.47
2018-10-17T16:30:40.321Z,21.23
2018-10-17T16:33:08.883Z,14.03
2018-10-17T16:35:38.053Z,11.60
2018-10-17T16:38:06.445Z,10.50
2018-10-17T16:40:34.735Z,14.07
2018-10-17T16:43:02.984Z,13.90
2018-10-17T16:45:31.183Z,12.60
2018-10-17T16:47:59.424Z,20.57
2018-10-17T16:50:27.831Z,15.90
2018-10-17T16:52:55.989Z,21.23
2018-10-17T16:55:24.294Z,13.57
2018-10-17T16:57:52.547Z,15.07
2018-10-17T17:00:20.710Z,13.50
2018-10-17T17:02:49.131Z,14.93
2018-10-17T17:05:17.624Z,11.23
2018-10-17T17:07:46.091Z,24.10
2018-10-17T17:10:14.748Z,13.20
2018-10-17T17:12:43.199Z,17.87
2018-10-17T17:15:11.671Z,17.40
2018-10-17T17:17:39.873Z,22.20
2018-10-17T17:20:09.417Z,25.63
2018-10-17T17:22:38.057Z,27.80
2018-10-17T17:25:06.603Z,17.33
2018-10-17T17:27:35.026Z,23.57
2018-10-17T17:30:03.277Z,28.40
2018-10-17T17:32:31.388Z,26.53
2018-10-17T17:34:59.731Z,19.67
2018-10-17T17:37:27.918Z,21.73
2018-10-17T17:39:56.099Z,14.50
2018-10-17T17:42:24.413Z,21.47
2018-10-17T17:44:52.876Z,16.97
2018-10-17T17:47:22.102Z,16.47
2018-10-17T17:49:50.572Z,26.37
2018-10-17T17:52:19.021Z,21.87
2018-10-17T17:54:47.321Z,15.80
2018-10-17T17:57:15.536Z,22.83
2018-10-17T17:59:43.725Z,44.00
2018-10-17T18:02:12.491Z,36.40
2018-10-17T18:04:40.934Z,18.13
2018-10-17T18:07:09.248Z,19.73
2018-10-17T18:09:37.506Z,21.60
2018-10-17T18:12:05.903Z,19.90
2018-10-17T18:14:34.404Z,40.77
2018-10-17T18:17:02.916Z,22.80
2018-10-17T18:19:31.474Z,18.63
2018-10-17T18:21:59.774Z,20.80
2018-10-17T18:24:32.039Z,24.20
2018-10-17T18:27:00.387Z,21.07
2018-10-17T18:29:29.643Z,19.00
2018-10-17T18:31:57.849Z,14.53
2018-10-17T18:34:26.974Z,17.67
2018-10-17T18:39:29.947Z,26.80
2018-10-17T18:42:01.741Z,20.47
2018-10-17T18:44:30.613Z,19.27
2018-10-17T18:46:59.421Z,17.97
2018-10-17T18:49:27.631Z,16.80
2018-10-17T18:51:55.942Z,17.20
2018-10-17T18:54:24.246Z,18.53
2018-10-17T18:56:52.643Z,18.70
2018-10-17T18:59:21.087Z,19.80
2018-10-17T19:01:49.566Z,17.20
2018-10-17T19:04:17.903Z,18.40
2018-10-17T19:06:46.914Z,18.37
2018-10-17T19:09:15.547Z,22.17
2018-10-17T19:11:43.894Z,28.07
2018-10-17T19:14:12.451Z,20.73
2018-10-17T19:16:48.862Z,17.03
2018-10-17T19:19:17.315Z,18.70
2018-10-17T19:21:45.808Z,26.03
2018-10-17T19:24:14.799Z,23.80
2018-10-17T19:26:43.122Z,23.10
2018-10-17T19:29:11.655Z,21.10
2018-10-17T19:31:40.055Z,22.33
2018-10-17T19:34:08.383Z,23.50
2018-10-17T19:36:36.857Z,16.30
2018-10-17T19:39:08.065Z,24.63
2018-10-17T19:41:36.535Z,20.77
2018-10-17T19:44:04.835Z,18.47
2018-10-17T19:46:33.387Z,20.30
2018-10-17T19:49:01.853Z,27.23
2018-10-17T19:51:30.256Z,25.83
2018-10-17T19:53:58.696Z,22.50
2018-10-17T19:56:27.473Z,22.40
2018-10-17T19:58:56.170Z,18.70
2018-10-17T20:01:24.907Z,37.60
2018-10-17T20:04:04.578Z,34.47
2018-10-17T20:06:33.365Z,29.70
2018-10-17T20:09:02.048Z,26.67
2018-10-17T20:11:31.243Z,20.83
2018-10-17T20:14:00.175Z,21.47
2018-10-17T20:16:28.674Z,19.90
2018-10-17T20:18:57.549Z,21.60
2018-10-17T20:21:26.230Z,26.30
2018-10-17T20:23:54.570Z,22.47
2018-10-17T20:26:23.216Z,20.80
2018-10-17T20:28:51.736Z,23.40
2018-10-17T20:31:19.979Z,24.07
2018-10-17T20:33:48.374Z,22.53
2018-10-17T20:36:17.561Z,23.20
2018-10-17T20:38:46.192Z,22.53
2018-10-17T20:41:14.458Z,23.77
2018-10-17T20:43:43.490Z,22.30
2018-10-17T20:46:11.691Z,24.47
2018-10-17T20:48:44.737Z,19.77
2018-10-17T20:51:13.072Z,23.43
2018-10-17T20:53:41.641Z,21.33
2018-10-17T20:56:10.205Z,30.03
2018-10-17T20:58:38.555Z,23.90
2018-10-17T21:01:06.992Z,23.00
2018-10-17T21:03:35.989Z,21.90
2018-10-17T21:06:05.392Z,27.90
2018-10-17T21:08:33.798Z,25.00
2018-10-17T21:11:02.302Z,26.03
2018-10-17T21:13:30.674Z,27.00
2018-10-17T21:16:00.230Z,23.80
2018-10-17T21:18:28.939Z,29.77
2018-10-17T21:20:57.203Z,28.67
2018-10-17T21:23:26.000Z,24.20
2018-10-17T21:25:54.476Z,27.13
2018-10-17T21:28:23.741Z,27.20
2018-10-17T21:30:52.770Z,30.43
2018-10-17T21:33:21.925Z,25.93
2018-10-17T21:35:50.975Z,30.17
2018-10-17T21:38:19.469Z,20.37
2018-10-17T21:40:47.682Z,25.20
2018-10-17T21:43:16.627Z,22.63
2018-10-17T21:45:44.998Z,20.57
2018-10-17T21:48:13.308Z,22.80
2018-10-17T21:50:41.726Z,25.07
2018-10-17T21:53:10.061Z,23.50
2018-10-17T21:55:38.359Z,24.50
2018-10-17T21:58:07.262Z,22.43
2018-10-17T22:00:36.148Z,26.30
2018-10-17T22:03:04.582Z,24.03
2018-10-17T22:05:32.866Z,22.23
2018-10-17T22:08:01.350Z,28.80
2018-10-17T22:10:29.703Z,22.70
2018-10-17T22:12:58.160Z,26.53
2018-10-17T22:15:26.507Z,26.70
2018-10-17T22:17:54.906Z,23.63
2018-10-17T22:20:23.387Z,19.90
2018-10-17T22:22:51.831Z,24.13
2018-10-17T22:25:20.300Z,23.67
2018-10-17T22:27:48.877Z,22.60
2018-10-17T22:30:17.311Z,26.77
2018-10-17T22:32:45.664Z,23.10
2018-10-17T22:35:13.976Z,24.00
2018-10-17T22:37:42.271Z,21.23
2018-10-17T22:40:10.623Z,25.10
2018-10-17T22:42:39.068Z,24.33
2018-10-17T22:45:07.584Z,26.80
2018-10-17T22:47:36.099Z,24.43
2018-10-17T22:50:04.788Z,25.50
2018-10-17T22:52:33.367Z,23.33
2018-10-17T22:55:01.728Z,28.33
2018-10-17T22:57:30.505Z,34.30
2018-10-17T22:59:58.882Z,26.63
2018-10-17T23:02:27.225Z,27.27
2018-10-17T23:04:55.767Z,23.90
2018-10-17T23:07:24.092Z,29.17
2018-10-17T23:09:52.509Z,24.93
2018-10-17T23:12:20.885Z,24.07
2018-10-17T23:14:49.411Z,31.53
2018-10-17T23:17:17.838Z,27.00
2018-10-17T23:19:46.103Z,25.53
2018-10-17T23:22:14.439Z,31.77
2018-10-17T23:24:42.724Z,21.93
2018-10-17T23:27:11.098Z,25.80
2018-10-17T23:29:39.382Z,25.10
2018-10-17T23:32:07.859Z,29.80
2018-10-17T23:34:36.050Z,25.23
2018-10-17T23:37:04.481Z,24.93
2018-10-17T23:39:32.833Z,31.80
2018-10-17T23:42:01.276Z,29.40
2018-10-17T23:44:29.635Z,23.40
2018-10-17T23:46:58.099Z,26.17
2018-10-17T23:49:26.388Z,25.07
2018-10-17T23:51:54.753Z,22.77
2018-10-17T23:54:23.197Z,25.50
2018-10-17T23:56:51.502Z,23.70
2018-10-17T23:59:19.823Z,25.73
